Terminal Aerodrome Forecast
Issued by NWS

Home | Current Version | Previous Version | Text Only | Print | Product List | Glossary On
Versions: 1 2 3 4 5 6 7 8 9 10 11 12 13 14
000
FTUS45 KRIW 241100
TAFCPR
TAF
KCPR 241123Z 2412/2512 22020G30KT P6SM SCT090 BKN200
     FM241500 22022G34KT P6SM BKN080
     FM242200 22020G30KT P6SM VCSH BKN060
     FM250400 22016G26KT P6SM BKN080=

USA.gov is the U.S. government's official web portal to all federal, state and local government web resources and services.